Date,TemperatureHighF,TemperatureAvgF,TemperatureLowF,DewpointHighF,DewpointAvgF,DewpointLowF,HumidityHigh,HumidityAvg,HumidityLow,PressureMaxIn,PressureMinIn,WindSpeedMaxMPH,WindSpeedAvgMPH,GustSpeedMaxMPH,PrecipitationSumIn
2013-3-1,33,31,28,30,27,23,96,86,77,30.11,29.99,10,5,16,0.02
2013-3-2,30,28,26,26,23,19,89,81,69,30.14,30.09,11,5,17,0.00
2013-3-3,35,28,19,23,19,16,88,71,53,30.14,30.07,8,3,16,0.00
2013-3-4,37,30,17,29,24,15,94,79,59,30.13,29.96,7,2,13,0.01
2013-3-5,35,32,27,33,30,26,97,92,79,29.98,29.70,6,3,12,0.05
2013-3-6,32,29,27,29,27,26,97,93,87,30.29,29.83,10,5,16,0.01
2013-3-7,37,32,25,30,26,23,92,81,66,30.41,30.28,5,2,8,0.05
2013-3-8,41,32,19,29,25,18,96,77,59,30.50,30.36,5,1,10,0.01
2013-3-9,48,40,31,40,33,26,85,75,64,30.36,29.92,7,3,15,0.04
2013-3-10,66,58,47,49,44,36,74,61,46,29.91,29.70,14,7,24,0.03
2013-3-11,55,43,33,51,41,30,95,91,75,29.85,29.63,11,5,24,0.07
2013-3-12,40,34,30,32,27,24,93,78,56,30.04,29.85,10,6,20,0.01
2013-3-13,33,30,26,26,21,17,89,70,57,30.34,30.03,11,6,20,0.01
2013-3-14,40,30,20,32,23,18,92,78,52,30.35,30.15,8,2,13,0.00
2013-3-15,50,39,28,41,34,26,95,83,67,30.15,29.75,5,2,9,0.00
2013-3-16,46,38,32,41,35,27,97,87,80,30.09,29.61,12,5,22,0.00
2013-3-17,39,33,30,28,26,23,81,74,63,30.17,29.98,9,5,18,0.00
2013-3-18,39,34,30,38,32,23,97,90,76,29.98,29.60,10,5,21,0.07
2013-3-19,40,30,22,23,17,13,76,61,38,30.11,29.85,13,8,32,0.04
2013-3-20,32,25,21,21,14,8,80,63,45,30.11,30.04,13,6,31,0.00
2013-3-21,35,26,19,16,14,11,84,62,42,30.04,29.99,8,3,17,0.00
2013-3-22,43,30,16,22,17,13,92,63,37,30.07,29.99,6,1,12,0.00
2013-3-23,45,37,30,27,23,20,68,57,43,30.10,29.95,8,4,16,0.00
2013-3-24,34,31,29,29,27,24,97,85,68,29.96,29.49,14,7,25,0.02
2013-3-25,36,31,27,31,28,26,97,91,72,30.03,29.57,13,7,19,0.13
2013-3-26,38,33,30,29,27,26,86,78,64,30.26,30.03,8,4,16,0.03
2013-3-27,41,34,25,29,25,20,92,71,43,30.34,30.26,8,2,16,0.01
2013-3-28,47,37,26,29,26,22,88,65,45,30.38,30.30,5,1,11,0.00
2013-3-29,52,36,32,33,28,26,83,74,49,30.32,30.22,3,0,9,0.00
2013-3-30,56,52,47,39,37,34,72,57,44,30.03,29.93,5,2,12,0.00
2013-3-31,61,50,44,44,40,-100,96,73,48,29.93,29.75,13,4,26,0.01